Time;durP1;ratioP1;P1;durP2;ratioP2;P2;SDS_P1;SDS_P2;PMS_P1;PMS_P2;Temp;Humidity;BMP_temperature;BMP_pressure;BME280_temperature;BME280_humidity;BME280_pressure;Samples;Min_cycle;Max_cycle;Signal;HPM_P1;HPM_P2
2022/06/22 00:01:54;;;;;;;10.18;2.10;;;15.40;93.10;;;;;;5116551;28;20093;-92
2022/06/22 00:04:26;;;;;;;5.32;1.77;;;15.30;93.40;;;;;;5117465;28;20464;-92
2022/06/22 00:06:57;;;;;;;4.55;1.92;;;15.40;93.70;;;;;;5099755;28;20099;-92
2022/06/22 00:09:35;;;;;;;5.32;2.00;;;15.40;93.90;;;;;;5115818;28;20114;-92
2022/06/22 00:12:02;;;;;;;6.93;1.73;;;15.40;94.10;;;;;;5117603;28;20367;-91
2022/06/22 00:14:44;;;;;;;8.27;2.13;;;15.30;94.20;;;;;;5116180;28;20135;-91
2022/06/22 00:17:37;;;;;;;5.97;2.20;;;15.30;94.40;;;;;;5114773;28;20038;-92
2022/06/22 00:20:15;;;;;;;6.85;2.67;;;15.30;94.90;;;;;;5115667;28;20027;-90
2022/06/22 00:22:52;;;;;;;4.20;1.80;;;15.20;95.20;;;;;;5115481;28;20019;-91
2022/06/22 00:25:39;;;;;;;3.17;1.95;;;15.20;95.50;;;;;;5116374;28;20047;-90
2022/06/22 00:28:59;;;;;;;5.03;2.22;;;15.20;95.80;;;;;;5115207;28;20506;-89
2022/06/22 00:31:43;;;;;;;4.07;1.90;;;15.10;96.20;;;;;;5016202;28;20525;-91
2022/06/22 00:34:15;;;;;;;4.55;1.92;;;15.00;96.40;;;;;;5016447;28;20029;-92
2022/06/22 00:37:12;;;;;;;6.28;1.95;;;15.00;96.80;;;;;;5016585;28;20032;-92
2022/06/22 00:39:43;;;;;;;6.95;2.00;;;14.90;97.20;;;;;;5016933;28;20053;-90
2022/06/22 00:42:14;;;;;;;2.53;1.52;;;14.90;97.50;;;;;;5016185;28;20034;-91
2022/06/22 00:44:43;;;;;;;6.65;1.85;;;14.80;97.90;;;;;;5033208;28;20073;-90
2022/06/22 00:47:35;;;;;;;3.92;1.90;;;14.70;98.40;;;;;;5016425;28;20041;-89
2022/06/22 00:50:12;;;;;;;3.42;2.08;;;14.60;98.90;;;;;;5032802;28;20072;-92
2022/06/22 00:52:41;;;;;;;5.63;1.92;;;14.40;99.40;;;;;;5039475;28;20059;-91
2022/06/22 00:55:33;;;;;;;8.77;2.88;;;14.30;99.90;;;;;;5044270;28;20024;-90
2022/06/22 00:58:07;;;;;;;8.80;3.17;;;14.20;99.90;;;;;;5004469;28;20048;-92
2022/06/22 01:00:38;;;;;;;8.30;2.25;;;14.20;99.90;;;;;;5020562;28;20514;-89
2022/06/22 01:03:12;;;;;;;;;;;14.20;99.90;;;;;;5029390;28;20120;-91
2022/06/22 01:05:55;;;;;;;3.58;2.00;;;14.10;99.90;;;;;;5087629;28;19908;-91
2022/06/22 01:08:27;;;;;;;5.30;2.28;;;14.10;99.90;;;;;;5114329;28;20027;-92
2022/06/22 01:14:10;;;;;;;4.68;2.15;;;14.10;99.90;;;;;;5083860;28;20043;-91
2022/06/22 01:16:38;;;;;;;5.38;1.85;;;14.00;99.90;;;;;;5115411;28;20441;-91
2022/06/22 01:19:34;;;;;;;4.82;1.95;;;14.00;99.90;;;;;;5114514;28;20040;-90
2022/06/22 01:22:20;;;;;;;4.05;1.77;;;13.90;99.90;;;;;;5114445;28;20066;-92
2022/06/22 01:25:20;;;;;;;4.97;2.00;;;13.80;99.90;;;;;;5114710;28;20026;-90
2022/06/22 01:27:47;;;;;;;7.07;2.50;;;13.80;99.90;;;;;;5114996;28;20015;-90
2022/06/22 01:30:16;;;;;;;5.22;2.17;;;13.80;99.90;;;;;;5118701;28;20024;-90
2022/06/22 01:32:45;;;;;;;3.33;1.80;;;13.80;99.90;;;;;;5118130;28;20031;-90
2022/06/22 01:35:30;;;;;;;7.22;2.00;;;13.80;99.90;;;;;;5120057;28;20039;-91
2022/06/22 01:37:56;;;;;;;5.10;1.80;;;13.70;99.90;;;;;;5118342;28;20031;-90
2022/06/22 01:41:00;;;;;;;5.32;2.20;;;13.70;99.90;;;;;;5118624;28;20039;-91
2022/06/22 01:43:39;;;;;;;5.80;2.10;;;13.70;99.90;;;;;;5135674;28;20043;-89
2022/06/22 01:46:16;;;;;;;6.10;2.20;;;13.60;99.90;;;;;;5126777;28;20020;-91
2022/06/22 01:48:53;;;;;;;4.07;2.10;;;13.40;99.90;;;;;;5118741;28;20040;-90
2022/06/22 01:51:29;;;;;;;5.47;1.73;;;13.40;99.90;;;;;;5117657;28;20019;-91
2022/06/22 01:54:10;;;;;;;9.43;2.10;;;13.30;99.90;;;;;;5117879;28;20020;-91
2022/06/22 01:56:53;;;;;;;3.28;2.40;;;13.30;99.90;;;;;;5117354;28;20085;-91
2022/06/22 01:59:58;;;;;;;6.20;1.92;;;13.30;99.90;;;;;;5101176;28;20127;-91
2022/06/22 02:02:45;;;;;;;6.03;2.03;;;13.20;99.90;;;;;;5117329;28;20043;-92
2022/06/22 02:05:35;;;;;;;5.07;1.92;;;13.20;99.90;;;;;;5116666;28;20038;-91
2022/06/22 02:08:15;;;;;;;5.30;1.70;;;13.10;99.90;;;;;;5019282;28;20137;-91
2022/06/22 02:10:40;;;;;;;3.42;2.03;;;13.20;99.90;;;;;;5026647;28;20025;-90
2022/06/22 02:13:24;;;;;;;3.85;2.08;;;13.10;99.90;;;;;;5028845;28;20153;-91
2022/06/22 02:16:03;;;;;;;5.30;2.10;;;13.10;99.90;;;;;;5020598;28;20025;-91
2022/06/22 02:18:38;;;;;;;3.35;1.88;;;13.00;99.90;;;;;;5020130;28;20396;-91
2022/06/22 02:21:26;;;;;;;5.40;1.90;;;13.00;99.90;;;;;;5019595;28;20046;-90
2022/06/22 02:24:00;;;;;;;4.30;2.00;;;12.90;99.90;;;;;;5036282;28;20037;-91
2022/06/22 02:26:40;;;;;;;4.60;1.88;;;12.90;99.90;;;;;;5019706;28;20029;-90
2022/06/22 02:29:07;;;;;;;6.13;2.20;;;12.90;99.90;;;;;;5019397;28;20025;-91
2022/06/22 02:31:33;;;;;;;4.82;2.28;;;12.80;99.90;;;;;;5019102;28;20033;-91
2022/06/22 02:34:01;;;;;;;5.13;2.28;;;12.80;99.90;;;;;;5019990;28;20112;-92
2022/06/22 02:36:31;;;;;;;4.88;2.35;;;12.70;99.90;;;;;;5021265;28;20032;-90
2022/06/22 02:39:01;;;;;;;3.50;2.20;;;12.70;99.90;;;;;;5018702;28;20045;-91
2022/06/22 02:44:32;;;;;;;7.10;2.47;;;12.60;99.90;;;;;;5049129;28;20047;-92
2022/06/22 02:47:18;;;;;;;5.20;1.88;;;12.60;99.90;;;;;;5116424;28;20045;-90
2022/06/22 02:49:56;;;;;;;7.90;1.95;;;12.60;99.90;;;;;;5116934;28;20023;-93
2022/06/22 02:52:26;;;;;;;4.45;2.10;;;12.60;99.90;;;;;;5117281;28;20034;-92
2022/06/22 02:54:57;;;;;;;3.65;1.98;;;12.60;99.90;;;;;;5115991;28;20480;-92
2022/06/22 02:57:45;;;;;;;4.45;2.05;;;12.50;99.90;;;;;;5116742;28;20039;-92
2022/06/22 03:00:12;;;;;;;3.72;2.00;;;12.60;99.90;;;;;;5115976;28;20689;-91
2022/06/22 03:02:41;;;;;;;4.63;2.00;;;12.50;99.90;;;;;;5116708;28;20035;-92
2022/06/22 03:05:07;;;;;;;2.63;2.10;;;12.50;99.90;;;;;;5096245;28;20028;-91
2022/06/22 03:07:42;;;;;;;3.10;1.90;;;12.50;99.90;;;;;;5096685;28;20044;-91
2022/06/22 03:10:35;;;;;;;3.72;2.00;;;12.50;99.90;;;;;;5094038;28;20032;-92
2022/06/22 03:13:01;;;;;;;6.25;2.05;;;12.50;99.90;;;;;;5096850;28;20023;-91
2022/06/22 03:15:35;;;;;;;7.85;2.05;;;12.40;99.90;;;;;;5095526;28;20039;-92
2022/06/22 03:18:02;;;;;;;5.43;1.70;;;12.30;99.90;;;;;;5096242;28;20028;-90
2022/06/22 03:20:34;;;;;;;4.65;2.00;;;12.30;99.90;;;;;;5096487;28;20097;-92
2022/06/22 03:23:22;;;;;;;4.13;2.20;;;12.20;99.90;;;;;;5096078;28;20031;-91
2022/06/22 03:25:57;;;;;;;5.28;2.17;;;12.20;99.90;;;;;;5095452;28;20111;-90
2022/06/22 03:28:34;;;;;;;5.45;2.33;;;12.20;99.90;;;;;;5085074;28;20024;-90
2022/06/22 03:31:25;;;;;;;4.32;2.00;;;12.20;99.90;;;;;;5104135;28;20044;-90
2022/06/22 03:34:01;;;;;;;7.80;3.08;;;12.10;99.90;;;;;;5097878;28;20035;-91
2022/06/22 03:36:43;;;;;;;5.22;2.05;;;12.10;99.90;;;;;;5096568;28;20036;-90
2022/06/22 03:39:14;;;;;;;6.53;2.10;;;12.00;99.90;;;;;;5097007;28;20028;-90
2022/06/22 03:41:46;;;;;;;4.40;2.30;;;11.90;99.90;;;;;;5095396;28;20036;-90
2022/06/22 03:44:29;;;;;;;5.78;2.20;;;11.90;99.90;;;;;;5096558;28;20028;-91
2022/06/22 03:47:06;;;;;;;4.97;2.20;;;11.80;99.90;;;;;;5096124;28;20047;-91
2022/06/22 03:49:44;;;;;;;5.40;2.20;;;11.80;99.90;;;;;;5095486;28;20042;-92
2022/06/22 03:52:31;;;;;;;2.53;1.77;;;11.70;99.90;;;;;;5094791;28;20107;-91
2022/06/22 03:55:04;;;;;;;7.00;2.50;;;11.70;99.90;;;;;;5094869;28;20027;-90
2022/06/22 03:57:39;;;;;;;7.13;2.55;;;11.70;99.90;;;;;;5095161;28;20035;-91
2022/06/22 04:00:08;;;;;;;2.78;1.75;;;11.70;99.90;;;;;;5077193;28;20048;-91
2022/06/22 04:02:34;;;;;;;4.40;2.42;;;11.70;99.90;;;;;;5094451;28;20055;-91
2022/06/22 04:05:01;;;;;;;8.07;2.40;;;11.60;99.90;;;;;;5077280;28;20082;-90
2022/06/22 04:07:33;;;;;;;5.40;2.67;;;11.60;99.90;;;;;;5094570;28;20107;-92
2022/06/22 04:09:59;;;;;;;5.65;2.45;;;11.60;99.90;;;;;;5093837;28;20040;-90
2022/06/22 04:12:38;;;;;;;4.78;2.50;;;11.60;99.90;;;;;;5094043;28;20024;-91
2022/06/22 04:15:30;;;;;;;4.25;2.20;;;11.50;99.90;;;;;;5093875;28;20028;-91
2022/06/22 04:18:11;;;;;;;6.00;2.42;;;11.50;99.90;;;;;;5093049;28;20040;-90
2022/06/22 04:20:52;;;;;;;;;;;11.50;99.90;;;;;;5095221;28;20474;-90
2022/06/22 04:23:30;;;;;;;7.13;2.58;;;11.50;99.90;;;;;;5093942;28;20433;-89
2022/06/22 04:26:03;;;;;;;3.85;2.33;;;11.50;99.90;;;;;;5095411;28;20036;-90
2022/06/22 04:28:32;;;;;;;4.88;2.40;;;11.50;99.90;;;;;;5096189;28;20024;-89
2022/06/22 04:31:02;;;;;;;6.97;2.83;;;11.50;99.90;;;;;;5098306;28;20036;-91
2022/06/22 04:33:47;;;;;;;5.47;2.67;;;11.50;99.90;;;;;;5097808;28;20058;-89
2022/06/22 04:36:34;;;;;;;5.20;2.28;;;11.50;99.90;;;;;;5096667;28;20042;-90
2022/06/22 04:39:18;;;;;;;5.90;2.60;;;11.50;99.90;;;;;;5095429;28;20039;-90
2022/06/22 04:41:45;;;;;;;7.68;2.45;;;11.50;99.90;;;;;;5097318;28;20465;-89
2022/06/22 04:44:24;;;;;;;4.07;2.78;;;11.50;99.90;;;;;;5095497;28;20461;-89
2022/06/22 04:46:57;;;;;;;7.13;2.20;;;11.50;99.90;;;;;;5108878;28;20019;-87
2022/06/22 04:49:31;;;;;;;3.17;2.10;;;11.50;99.90;;;;;;5101684;28;20032;-90
2022/06/22 04:52:18;;;;;;;4.45;2.35;;;11.50;99.90;;;;;;5097625;28;20028;-90
2022/06/22 04:54:44;;;;;;;2.30;1.75;;;11.50;99.90;;;;;;5095153;28;20034;-90
2022/06/22 04:57:44;;;;;;;6.13;2.38;;;11.50;99.90;;;;;;5093995;28;20108;-90
2022/06/22 05:00:19;;;;;;;4.93;3.08;;;11.50;99.90;;;;;;5052284;28;20052;-90
2022/06/22 05:02:49;;;;;;;4.03;2.30;;;11.50;99.90;;;;;;5094570;28;20503;-91
2022/06/22 05:05:25;;;;;;;5.80;2.17;;;11.50;99.90;;;;;;5094135;28;20081;-91
2022/06/22 05:07:56;;;;;;;4.00;2.38;;;11.50;99.90;;;;;;5098356;28;20039;-90
2022/06/22 05:10:42;;;;;;;4.25;2.03;;;11.40;99.90;;;;;;5095915;28;20051;-91
2022/06/22 05:13:22;;;;;;;5.82;2.03;;;11.40;99.90;;;;;;5093705;28;20075;-91
2022/06/22 05:15:52;;;;;;;6.63;2.95;;;11.40;99.90;;;;;;5093739;28;20538;-89
2022/06/22 05:18:23;;;;;;;5.53;2.43;;;11.40;99.90;;;;;;5090597;28;20081;-91
2022/06/22 05:21:20;;;;;;;2.90;2.13;;;11.40;99.90;;;;;;5090203;28;20294;-90
2022/06/22 05:23:53;;;;;;;6.47;2.30;;;11.50;99.90;;;;;;5069067;28;20029;-90
2022/06/22 05:26:22;;;;;;;3.33;2.13;;;11.50;99.90;;;;;;5074623;28;20032;-90
2022/06/22 05:29:02;;;;;;;2.78;2.00;;;11.50;99.90;;;;;;5083716;28;20063;-89
2022/06/22 05:31:31;;;;;;;8.82;2.20;;;11.60;99.90;;;;;;5087753;28;20029;-89
2022/06/22 05:34:02;;;;;;;3.28;1.77;;;11.60;99.90;;;;;;5074771;28;20024;-90
2022/06/22 05:36:34;;;;;;;4.93;2.10;;;11.70;99.90;;;;;;5073523;28;20489;-90
2022/06/22 05:39:01;;;;;;;3.72;2.10;;;11.70;99.90;;;;;;5073070;28;20115;-90
2022/06/22 05:41:32;;;;;;;2.63;2.17;;;11.80;99.90;;;;;;5073419;28;20062;-90
2022/06/22 05:44:04;;;;;;;4.03;1.80;;;11.80;99.90;;;;;;5073893;28;20106;-90
2022/06/22 05:46:30;;;;;;;4.38;1.90;;;11.80;99.90;;;;;;5072309;28;20078;-90
2022/06/22 05:48:56;;;;;;;2.95;2.05;;;11.90;99.90;;;;;;5073030;28;20474;-90
2022/06/22 05:51:57;;;;;;;2.55;2.00;;;11.90;99.90;;;;;;5073474;28;20060;-91
2022/06/22 05:54:43;;;;;;;3.58;2.10;;;12.00;99.90;;;;;;5073390;28;20075;-90
2022/06/22 05:57:27;;;;;;;4.72;1.80;;;12.10;99.90;;;;;;5072715;28;20033;-91
2022/06/22 06:00:11;;;;;;;3.72;1.80;;;12.20;99.90;;;;;;5074164;28;20052;-91
2022/06/22 06:02:56;;;;;;;5.90;2.10;;;12.20;99.90;;;;;;5076790;28;20064;-90
2022/06/22 06:05:34;;;;;;;3.28;2.22;;;12.40;99.90;;;;;;5121852;27;20078;-89
2022/06/22 06:08:02;;;;;;;5.05;1.90;;;12.50;99.90;;;;;;5101567;28;20028;-90
2022/06/22 06:10:39;;;;;;;3.78;1.90;;;12.60;99.90;;;;;;5099467;28;20046;-89
2022/06/22 06:13:16;;;;;;;3.65;2.45;;;12.70;99.90;;;;;;5107484;28;20016;-91
2022/06/22 06:15:45;;;;;;;4.50;2.00;;;12.80;99.90;;;;;;5104767;28;20101;-89
2022/06/22 06:18:17;;;;;;;7.05;2.22;;;12.90;99.90;;;;;;5108426;28;20024;-91
2022/06/22 06:20:48;;;;;;;5.15;1.98;;;13.00;99.90;;;;;;5105238;28;20047;-90
2022/06/22 06:23:37;;;;;;;6.45;2.10;;;13.10;99.90;;;;;;5105675;28;20016;-91
2022/06/22 06:29:13;;;;;;;2.20;1.70;;;13.40;99.90;;;;;;5107166;28;20049;-90
2022/06/22 06:32:00;;;;;;;5.75;2.35;;;13.50;99.90;;;;;;5108285;28;20028;-91
2022/06/22 06:34:53;;;;;;;3.38;2.13;;;13.60;99.90;;;;;;5120570;27;20133;-92
2022/06/22 06:37:35;;;;;;;4.88;2.40;;;13.80;99.90;;;;;;5096963;28;20060;-91
2022/06/22 06:40:01;;;;;;;5.05;2.58;;;13.90;99.90;;;;;;5107824;28;20044;-91
2022/06/22 06:43:13;;;;;;;5.53;2.17;;;14.00;99.90;;;;;;5109323;28;20046;-91
2022/06/22 06:45:40;;;;;;;6.40;2.08;;;14.10;99.90;;;;;;5106361;28;20031;-91
2022/06/22 06:48:12;;;;;;;6.10;2.20;;;14.30;99.90;;;;;;5096609;28;20046;-91
2022/06/22 06:50:47;;;;;;;9.10;2.22;;;14.40;99.90;;;;;;5097376;28;20496;-91
2022/06/22 06:53:22;;;;;;;3.40;2.05;;;14.60;99.90;;;;;;5095954;28;20023;-91
2022/06/22 06:55:54;;;;;;;5.82;2.00;;;14.60;99.90;;;;;;5094653;28;20020;-90
2022/06/22 06:58:35;;;;;;;3.53;2.15;;;14.80;99.90;;;;;;5097085;28;20020;-92
2022/06/22 07:01:01;;;;;;;4.53;1.85;;;14.90;99.90;;;;;;5124563;27;20047;-92
2022/06/22 07:03:31;;;;;;;3.95;2.20;;;15.10;99.90;;;;;;5106841;28;20035;-90
2022/06/22 07:05:57;;;;;;;4.87;1.73;;;15.20;99.90;;;;;;5108408;28;20024;-92
2022/06/22 07:08:36;;;;;;;5.85;2.17;;;15.30;99.90;;;;;;5096597;28;20039;-92
2022/06/22 07:11:14;;;;;;;6.57;2.33;;;15.50;99.90;;;;;;5118259;27;20495;-92
2022/06/22 07:13:50;;;;;;;4.65;2.35;;;15.60;99.90;;;;;;5096550;28;20028;-89
2022/06/22 07:16:20;;;;;;;4.57;1.88;;;15.70;99.90;;;;;;5106389;28;20119;-89
2022/06/22 07:19:04;;;;;;;3.22;2.20;;;15.90;99.90;;;;;;5108340;28;20358;-90
2022/06/22 07:21:34;;;;;;;3.60;1.90;;;16.00;99.90;;;;;;5115872;28;20051;-89
2022/06/22 07:24:33;;;;;;;7.60;2.08;;;16.20;99.90;;;;;;5117753;28;20013;-91
2022/06/22 07:27:18;;;;;;;5.78;1.80;;;16.30;99.90;;;;;;5074561;28;20587;-95
2022/06/22 07:29:56;;;;;;;3.90;1.80;;;16.50;99.90;;;;;;5086492;28;20495;-94
2022/06/22 07:32:46;;;;;;;4.45;1.73;;;16.60;99.90;;;;;;5095810;28;20036;-92
2022/06/22 07:35:19;;;;;;;4.88;2.35;;;16.80;99.90;;;;;;5094121;28;20028;-94
2022/06/22 07:38:24;;;;;;;5.72;1.98;;;17.00;99.90;;;;;;5098327;28;20055;-92
2022/06/22 07:43:36;;;;;;;3.85;1.45;;;17.30;99.90;;;;;;5108679;28;20081;-91
2022/06/22 07:46:04;;;;;;;2.53;1.38;;;17.40;99.90;;;;;;5099325;28;20031;-95
2022/06/22 07:48:33;;;;;;;5.97;1.70;;;17.60;99.90;;;;;;5096447;28;20012;-92
2022/06/22 07:51:02;;;;;;;1.98;1.38;;;17.70;99.90;;;;;;5094587;28;20043;-92
2022/06/22 07:53:55;;;;;;;3.83;1.40;;;17.90;99.90;;;;;;5097413;28;20032;-94
2022/06/22 07:56:46;;;;;;;3.22;1.42;;;18.10;99.90;;;;;;5095723;28;20024;-92
2022/06/22 07:59:27;;;;;;;1.60;1.30;;;18.20;99.90;;;;;;5097296;28;20104;-92
2022/06/22 08:01:58;;;;;;;1.38;1.17;;;18.40;99.90;;;;;;5092972;28;20036;-92
2022/06/22 08:04:36;;;;;;;1.38;1.23;;;18.60;99.90;;;;;;5094333;28;20466;-92
2022/06/22 08:07:19;;;;;;;2.25;1.17;;;18.70;99.90;;;;;;5093678;28;20024;-93
2022/06/22 08:09:58;;;;;;;2.08;1.30;;;18.80;99.90;;;;;;5093671;28;20035;-91
2022/06/22 08:12:38;;;;;;;4.38;1.90;;;19.00;99.90;;;;;;5097868;28;20020;-93
2022/06/22 08:15:07;;;;;;;2.90;1.23;;;19.10;99.90;;;;;;5094659;28;20039;-92
2022/06/22 08:17:42;;;;;;;5.65;1.33;;;19.30;99.90;;;;;;5093874;28;20584;-94
2022/06/22 08:20:31;;;;;;;2.53;1.15;;;19.40;99.90;;;;;;5094838;28;20024;-95
2022/06/22 08:22:58;;;;;;;4.53;1.58;;;19.50;99.90;;;;;;5094969;28;20020;-93
2022/06/22 08:25:25;;;;;;;8.20;1.52;;;19.70;99.90;;;;;;5100164;28;20028;-93
2022/06/22 08:27:52;;;;;;;3.85;1.30;;;19.80;99.90;;;;;;5108519;28;20009;-93
2022/06/22 08:30:19;;;;;;;2.10;1.35;;;19.90;99.90;;;;;;5109617;28;20024;-95
2022/06/22 08:33:03;;;;;;;2.78;1.33;;;20.00;99.90;;;;;;5099696;28;20092;-95
2022/06/22 08:35:36;;;;;;;2.83;1.13;;;20.20;99.90;;;;;;5095531;28;20024;-93
2022/06/22 08:38:07;;;;;;;3.30;1.05;;;20.30;99.90;;;;;;5097679;28;20024;-94
2022/06/22 08:40:47;;;;;;;3.08;1.02;;;20.50;99.70;;;;;;5107774;28;20552;-92
2022/06/22 08:43:23;;;;;;;2.22;1.65;;;20.70;98.90;;;;;;5101668;28;20397;-94
2022/06/22 08:46:07;;;;;;;4.10;1.23;;;20.80;98.10;;;;;;5096839;28;20024;-95
2022/06/22 08:48:39;;;;;;;2.92;0.70;;;21.00;96.90;;;;;;5099022;28;20040;-94
2022/06/22 08:51:40;;;;;;;1.67;0.90;;;21.20;96.40;;;;;;5097789;28;20465;-92
2022/06/22 08:54:11;;;;;;;;;;;21.40;95.20;;;;;;5044455;28;20073;-93
2022/06/22 08:56:51;;;;;;;2.78;0.90;;;21.60;94.80;;;;;;5096869;28;19931;-95
2022/06/22 08:59:22;;;;;;;2.72;1.13;;;21.80;94.30;;;;;;5095181;28;20358;-94
2022/06/22 09:02:07;;;;;;;1.30;0.80;;;22.00;93.60;;;;;;5096305;28;20050;-94
2022/06/22 09:04:33;;;;;;;1.90;0.70;;;22.10;92.80;;;;;;5094958;28;20055;-95
2022/06/22 09:07:29;;;;;;;1.23;0.80;;;22.30;91.80;;;;;;5094641;28;20474;-93
2022/06/22 09:10:22;;;;;;;1.15;0.75;;;22.50;90.80;;;;;;5094817;28;20046;-94
2022/06/22 09:13:28;;;;;;;3.05;0.85;;;22.40;90.00;;;;;;5094709;28;20374;-93
2022/06/22 09:16:03;;;;;;;1.55;1.00;;;22.50;89.00;;;;;;5094481;28;20032;-92
2022/06/22 09:19:00;;;;;;;1.00;0.73;;;22.60;87.20;;;;;;5094808;28;20110;-94
2022/06/22 09:21:43;;;;;;;1.00;0.80;;;22.70;85.10;;;;;;5094467;28;20167;-95
2022/06/22 09:24:11;;;;;;;1.73;0.85;;;22.80;83.50;;;;;;5093797;28;20028;-94
2022/06/22 09:26:44;;;;;;;1.02;0.80;;;22.90;82.60;;;;;;5095999;28;20496;-94
2022/06/22 09:30:03;;;;;;;1.25;0.82;;;23.00;81.60;;;;;;5094417;28;20039;-94
2022/06/22 09:32:45;;;;;;;1.50;0.65;;;23.10;80.70;;;;;;4997243;28;20510;-95
2022/06/22 09:35:38;;;;;;;1.08;0.80;;;23.10;79.40;;;;;;4997375;28;20022;-95
2022/06/22 09:38:30;;;;;;;1.38;0.80;;;23.20;78.80;;;;;;4996821;28;20043;-95
2022/06/22 09:41:17;;;;;;;1.35;0.80;;;23.40;78.50;;;;;;4980390;28;20069;-96
2022/06/22 09:44:13;;;;;;;0.73;0.73;;;23.60;77.60;;;;;;5013256;28;20050;-94
2022/06/22 09:47:10;;;;;;;1.02;0.80;;;23.80;76.60;;;;;;4989335;28;20042;-93
2022/06/22 09:50:02;;;;;;;2.10;1.15;;;24.00;75.70;;;;;;4959127;28;20038;-94
2022/06/22 09:53:10;;;;;;;1.60;1.00;;;24.10;74.60;;;;;;4962304;28;20023;-94
2022/06/22 09:56:22;;;;;;;2.28;1.35;;;24.20;73.80;;;;;;4950759;29;20544;-95
2022/06/22 09:59:07;;;;;;;3.63;1.00;;;24.20;73.00;;;;;;4958920;28;20031;-88
2022/06/22 10:01:53;;;;;;;3.65;0.95;;;24.30;72.80;;;;;;4967634;28;20079;-94
2022/06/22 10:04:46;;;;;;;1.20;1.05;;;24.40;71.70;;;;;;5005308;28;20033;-92
2022/06/22 10:07:39;;;;;;;2.15;0.80;;;24.40;71.20;;;;;;5019534;28;20053;-95
2022/06/22 10:10:13;;;;;;;2.00;0.82;;;24.50;70.90;;;;;;5022774;28;20140;-94
2022/06/22 10:13:09;;;;;;;1.75;0.90;;;24.50;70.50;;;;;;5020999;28;20034;-95
2022/06/22 10:15:59;;;;;;;3.10;1.20;;;24.50;70.20;;;;;;5002497;28;20026;-96
2022/06/22 10:18:25;;;;;;;;;;;24.70;70.40;;;;;;5003451;28;20025;-96
2022/06/22 10:21:12;;;;;;;1.20;1.10;;;24.80;70.10;;;;;;5022777;28;20012;-96
2022/06/22 10:24:05;;;;;;;1.10;1.00;;;25.00;69.80;;;;;;5020921;28;20097;-94
2022/06/22 10:26:39;;;;;;;1.83;1.10;;;25.20;68.80;;;;;;5075955;28;20131;-95
2022/06/22 10:29:42;;;;;;;1.58;1.33;;;25.30;68.50;;;;;;5097075;28;20032;-93
2022/06/22 10:32:38;;;;;;;2.33;1.23;;;25.50;67.90;;;;;;5097261;28;20477;-94
2022/06/22 10:35:22;;;;;;;2.45;1.38;;;25.70;67.00;;;;;;5100286;28;20067;-94
2022/06/22 10:38:03;;;;;;;3.53;1.40;;;25.80;66.80;;;;;;5098039;28;20476;-94
2022/06/22 10:46:45;;;;;;;4.78;1.60;;;25.70;65.90;;;;;;5097242;28;20408;-92
2022/06/22 10:49:17;;;;;;;2.40;1.83;;;25.80;65.10;;;;;;5097992;28;20035;-93
2022/06/22 10:51:49;;;;;;;4.65;2.17;;;25.60;65.20;;;;;;5095788;28;20024;-93
2022/06/22 10:54:51;;;;;;;5.78;1.70;;;25.50;65.10;;;;;;5094968;28;20031;-93
2022/06/22 10:57:38;;;;;;;2.80;1.80;;;25.60;65.40;;;;;;5001681;28;20018;-94
2022/06/22 11:00:15;;;;;;;3.13;1.85;;;25.70;65.40;;;;;;5000961;28;20057;-94
2022/06/22 11:03:15;;;;;;;6.78;2.25;;;26.00;65.30;;;;;;5002281;28;20037;-93
2022/06/22 11:06:04;;;;;;;3.72;2.13;;;26.30;64.70;;;;;;5002761;28;20514;-94
2022/06/22 11:09:07;;;;;;;3.17;2.10;;;26.40;64.10;;;;;;4998875;28;20033;-93
2022/06/22 11:11:50;;;;;;;3.15;1.60;;;26.60;63.70;;;;;;5002339;28;20030;-95
2022/06/22 11:14:37;;;;;;;1.92;1.70;;;26.80;63.00;;;;;;5000473;28;20104;-93
2022/06/22 11:17:05;;;;;;;2.40;1.40;;;27.00;62.00;;;;;;5012627;28;20145;-91
2022/06/22 11:20:06;;;;;;;7.80;2.50;;;26.90;61.30;;;;;;5005536;28;20049;-92
2022/06/22 11:22:38;;;;;;;5.32;1.83;;;26.80;61.30;;;;;;5026272;28;20030;-94
2022/06/22 11:30:48;;;;;;;3.92;2.40;;;26.90;61.10;;;;;;5002799;28;20033;-90
2022/06/22 11:31:42;;;;;;;6.45;2.67;;;26.70;61.20;;;;;;5053635;28;20093;-91
2022/06/22 11:34:26;;;;;;;6.80;2.13;;;26.70;61.20;;;;;;5089898;28;20028;-93
2022/06/22 11:37:17;;;;;;;5.45;2.15;;;26.70;60.60;;;;;;5096937;28;20032;-92
2022/06/22 11:40:11;;;;;;;5.85;2.40;;;26.80;60.70;;;;;;5100011;28;20020;-90
2022/06/22 11:43:01;;;;;;;6.97;2.33;;;26.90;60.20;;;;;;5096842;28;20089;-90
2022/06/22 11:45:56;;;;;;;4.05;2.25;;;27.10;59.80;;;;;;5096575;28;20020;-91
2022/06/22 11:48:56;;;;;;;4.88;2.53;;;27.30;59.70;;;;;;5094177;28;20043;-91
2022/06/22 11:51:33;;;;;;;4.95;2.63;;;27.50;60.00;;;;;;5090222;28;20519;-91
2022/06/22 11:54:05;;;;;;;4.72;2.67;;;27.70;59.80;;;;;;5096261;28;20104;-93
2022/06/22 11:56:43;;;;;;;4.97;2.58;;;27.80;59.40;;;;;;5099503;28;20047;-92
2022/06/22 11:59:25;;;;;;;3.33;2.30;;;27.90;58.90;;;;;;5096110;28;20039;-92
2022/06/22 12:02:31;;;;;;;2.47;1.88;;;28.00;58.70;;;;;;5096066;28;20412;-93
2022/06/22 12:05:34;;;;;;;4.97;2.50;;;28.20;58.70;;;;;;5097089;28;20023;-93
2022/06/22 12:08:21;;;;;;;3.97;1.85;;;28.20;58.70;;;;;;5095534;28;20062;-92
2022/06/22 12:11:04;;;;;;;2.42;1.92;;;28.30;59.00;;;;;;5096420;28;20081;-91
2022/06/22 12:16:47;;;;;;;4.35;1.92;;;28.50;58.20;;;;;;5097329;28;20040;-93
2022/06/22 12:19:30;;;;;;;5.63;1.95;;;28.60;58.50;;;;;;5095821;28;20091;-93
2022/06/22 12:22:00;;;;;;;7.10;1.70;;;28.80;57.50;;;;;;5096017;28;20036;-92
2022/06/22 12:25:14;;;;;;;2.85;1.63;;;28.70;56.60;;;;;;5095623;28;20016;-92
2022/06/22 12:27:43;;;;;;;6.80;1.40;;;28.60;56.60;;;;;;5004183;28;20495;-93
2022/06/22 12:30:26;;;;;;;3.47;1.55;;;28.80;57.00;;;;;;5015408;28;20140;-94
2022/06/22 12:33:12;;;;;;;5.20;2.03;;;29.00;56.80;;;;;;5019373;28;20054;-91
2022/06/22 12:35:57;;;;;;;3.90;1.50;;;29.30;56.30;;;;;;5028211;28;20037;-89
2022/06/22 12:38:37;;;;;;;2.17;1.48;;;29.40;56.40;;;;;;5021082;28;20045;-93
2022/06/22 12:41:24;;;;;;;3.95;1.40;;;29.50;55.80;;;;;;5015879;28;20041;-90
2022/06/22 12:44:18;;;;;;;3.55;1.10;;;29.50;55.20;;;;;;4998674;28;20026;-91
2022/06/22 12:46:56;;;;;;;3.60;1.83;;;29.40;55.10;;;;;;4998663;28;20125;-92
2022/06/22 12:49:45;;;;;;;4.00;1.23;;;29.30;55.20;;;;;;5002559;28;20034;-92
2022/06/22 12:52:34;;;;;;;2.10;1.20;;;29.30;55.40;;;;;;4998847;28;20053;-94
2022/06/22 12:55:10;;;;;;;3.15;1.17;;;29.50;55.40;;;;;;5014586;28;20092;-93
2022/06/22 12:57:43;;;;;;;4.13;1.20;;;29.50;54.50;;;;;;5014604;28;20029;-91
2022/06/22 13:00:18;;;;;;;5.50;1.30;;;29.30;54.70;;;;;;5014442;28;20114;-92
2022/06/22 13:02:46;;;;;;;3.53;1.63;;;29.50;54.90;;;;;;5093678;28;20044;-91
2022/06/22 13:05:22;;;;;;;3.00;1.45;;;29.40;54.40;;;;;;5096833;28;20028;-95
2022/06/22 13:07:58;;;;;;;6.35;1.00;;;29.20;54.50;;;;;;5095923;28;20381;-91
2022/06/22 13:10:27;;;;;;;2.67;1.05;;;29.20;54.90;;;;;;5099350;28;20020;-90
2022/06/22 13:13:03;;;;;;;2.53;1.30;;;29.30;55.00;;;;;;5100927;28;20024;-92
2022/06/22 13:15:39;;;;;;;3.10;1.30;;;29.50;54.90;;;;;;5110622;28;20032;-90
2022/06/22 13:18:29;;;;;;;2.22;1.40;;;29.60;54.70;;;;;;5103417;28;20016;-92
2022/06/22 13:21:26;;;;;;;8.07;1.70;;;29.80;54.60;;;;;;5095062;28;20028;-93
2022/06/22 13:24:04;;;;;;;2.70;1.45;;;30.00;54.00;;;;;;5094300;28;20032;-94
2022/06/22 13:26:49;;;;;;;4.50;1.17;;;30.10;53.90;;;;;;5094879;28;20034;-92
2022/06/22 13:29:18;;;;;;;5.78;1.35;;;30.00;53.10;;;;;;5096949;28;20385;-91
2022/06/22 13:31:46;;;;;;;2.10;1.40;;;29.70;52.90;;;;;;5098527;28;20176;-92
2022/06/22 13:34:20;;;;;;;4.43;1.30;;;29.60;53.10;;;;;;5094340;28;20026;-92
2022/06/22 13:37:12;;;;;;;7.45;1.15;;;29.70;53.50;;;;;;5094613;28;20481;-93
2022/06/22 13:39:59;;;;;;;2.08;1.13;;;29.70;52.80;;;;;;5094360;28;20477;-93
2022/06/22 13:42:55;;;;;;;1.98;1.08;;;29.90;53.10;;;;;;5092834;28;20140;-93
2022/06/22 13:45:51;;;;;;;2.30;1.30;;;30.10;52.80;;;;;;5093372;28;20055;-88
2022/06/22 13:48:18;;;;;;;4.82;1.20;;;30.20;53.00;;;;;;5095177;28;20059;-89
2022/06/22 13:51:08;;;;;;;2.90;1.48;;;30.20;52.80;;;;;;5097083;28;20354;-89
2022/06/22 13:53:34;;;;;;;1.75;1.30;;;30.10;52.70;;;;;;5096974;28;20028;-90
2022/06/22 13:56:10;;;;;;;5.88;1.48;;;30.00;52.80;;;;;;5101476;28;20073;-88
2022/06/22 13:58:45;;;;;;;1.90;0.90;;;30.10;53.00;;;;;;5092546;28;20038;-89
2022/06/22 14:01:46;;;;;;;2.25;1.08;;;30.20;53.00;;;;;;5091821;28;20092;-89
2022/06/22 14:04:22;;;;;;;2.47;1.15;;;30.50;52.50;;;;;;5049154;28;20086;-88
2022/06/22 14:07:01;;;;;;;1.85;1.38;;;30.30;51.80;;;;;;5093628;28;20028;-88
2022/06/22 14:09:42;;;;;;;3.90;1.07;;;30.10;52.00;;;;;;5092197;28;20035;-89
2022/06/22 14:12:27;;;;;;;1.27;1.10;;;29.90;52.20;;;;;;5092856;28;20024;-89
2022/06/22 14:15:18;;;;;;;2.63;0.95;;;30.00;52.50;;;;;;5090846;28;20016;-90
2022/06/22 14:18:14;;;;;;;4.55;1.48;;;30.10;52.60;;;;;;5093180;28;20016;-90
2022/06/22 14:21:01;;;;;;;2.55;1.10;;;30.30;52.10;;;;;;5091009;28;20059;-89